sensor_id;sensor_type;location;lat;lon;timestamp;P1;durP1;ratioP1;P2;durP2;ratioP2
44452;SDS011;30155;52.164;21.236;2022-12-18T00:02:15;49.05;;;26.42;;
44452;SDS011;30155;52.164;21.236;2022-12-18T00:07:06;50.43;;;24.80;;
44452;SDS011;30155;52.164;21.236;2022-12-18T00:11:57;39.73;;;21.57;;
44452;SDS011;30155;52.164;21.236;2022-12-18T00:16:48;50.05;;;24.70;;
44452;SDS011;30155;52.164;21.236;2022-12-18T00:21:40;50.10;;;27.45;;
44452;SDS011;30155;52.164;21.236;2022-12-18T00:26:33;45.15;;;23.47;;
44452;SDS011;30155;52.164;21.236;2022-12-18T00:31:25;46.53;;;24.25;;
44452;SDS011;30155;52.164;21.236;2022-12-18T00:36:22;43.40;;;22.00;;
44452;SDS011;30155;52.164;21.236;2022-12-18T00:41:15;44.15;;;23.67;;
44452;SDS011;30155;52.164;21.236;2022-12-18T00:46:10;53.23;;;26.45;;
44452;SDS011;30155;52.164;21.236;2022-12-18T00:51:01;48.75;;;26.30;;
44452;SDS011;30155;52.164;21.236;2022-12-18T00:55:52;40.52;;;23.83;;
44452;SDS011;30155;52.164;21.236;2022-12-18T01:00:43;38.10;;;21.12;;
44452;SDS011;30155;52.164;21.236;2022-12-18T01:05:38;32.15;;;17.30;;
44452;SDS011;30155;52.164;21.236;2022-12-18T01:10:31;39.75;;;21.02;;
44452;SDS011;30155;52.164;21.236;2022-12-18T01:15:22;40.50;;;21.73;;
44452;SDS011;30155;52.164;21.236;2022-12-18T01:20:13;37.30;;;22.05;;
44452;SDS011;30155;52.164;21.236;2022-12-18T01:25:05;31.35;;;18.02;;
44452;SDS011;30155;52.164;21.236;2022-12-18T01:29:57;33.55;;;17.62;;
44452;SDS011;30155;52.164;21.236;2022-12-18T01:34:48;31.90;;;19.50;;
44452;SDS011;30155;52.164;21.236;2022-12-18T01:39:39;28.30;;;16.80;;
44452;SDS011;30155;52.164;21.236;2022-12-18T01:49:53;29.72;;;17.12;;
44452;SDS011;30155;52.164;21.236;2022-12-18T01:54:47;28.62;;;17.45;;
44452;SDS011;30155;52.164;21.236;2022-12-18T01:59:40;29.82;;;18.32;;
44452;SDS011;30155;52.164;21.236;2022-12-18T02:04:34;28.50;;;16.12;;
44452;SDS011;30155;52.164;21.236;2022-12-18T02:09:33;22.35;;;13.72;;
44452;SDS011;30155;52.164;21.236;2022-12-18T02:14:38;32.53;;;16.90;;
44452;SDS011;30155;52.164;21.236;2022-12-18T02:30:56;31.45;;;16.90;;
44452;SDS011;30155;52.164;21.236;2022-12-18T02:35:51;32.48;;;17.60;;
44452;SDS011;30155;52.164;21.236;2022-12-18T02:40:46;29.70;;;16.50;;
44452;SDS011;30155;52.164;21.236;2022-12-18T02:45:52;21.82;;;14.10;;
44452;SDS011;30155;52.164;21.236;2022-12-18T02:50:51;29.87;;;16.70;;
44452;SDS011;30155;52.164;21.236;2022-12-18T03:06:25;24.35;;;13.83;;
44452;SDS011;30155;52.164;21.236;2022-12-18T03:11:23;18.67;;;9.33;;
44452;SDS011;30155;52.164;21.236;2022-12-18T03:16:37;24.67;;;14.35;;
44452;SDS011;30155;52.164;21.236;2022-12-18T03:21:36;23.55;;;13.58;;
44452;SDS011;30155;52.164;21.236;2022-12-18T03:26:27;19.73;;;11.63;;
44452;SDS011;30155;52.164;21.236;2022-12-18T03:31:22;19.20;;;10.48;;
44452;SDS011;30155;52.164;21.236;2022-12-18T03:36:16;22.70;;;12.63;;
44452;SDS011;30155;52.164;21.236;2022-12-18T03:46:33;21.75;;;12.30;;
44452;SDS011;30155;52.164;21.236;2022-12-18T03:51:37;23.47;;;13.50;;
44452;SDS011;30155;52.164;21.236;2022-12-18T03:56:37;24.40;;;12.55;;
44452;SDS011;30155;52.164;21.236;2022-12-18T04:01:37;20.35;;;11.28;;
44452;SDS011;30155;52.164;21.236;2022-12-18T04:06:33;16.12;;;9.03;;
44452;SDS011;30155;52.164;21.236;2022-12-18T04:11:25;23.18;;;13.03;;
44452;SDS011;30155;52.164;21.236;2022-12-18T04:16:17;19.02;;;11.78;;
44452;SDS011;30155;52.164;21.236;2022-12-18T04:21:10;19.50;;;10.32;;
44452;SDS011;30155;52.164;21.236;2022-12-18T04:26:01;17.77;;;9.60;;
44452;SDS011;30155;52.164;21.236;2022-12-18T04:31:11;17.73;;;10.78;;
44452;SDS011;30155;52.164;21.236;2022-12-18T04:36:04;22.22;;;12.98;;
44452;SDS011;30155;52.164;21.236;2022-12-18T04:40:56;20.17;;;12.53;;
44452;SDS011;30155;52.164;21.236;2022-12-18T04:45:49;22.85;;;12.43;;
44452;SDS011;30155;52.164;21.236;2022-12-18T04:50:40;21.10;;;12.58;;
44452;SDS011;30155;52.164;21.236;2022-12-18T04:55:31;19.65;;;11.55;;
44452;SDS011;30155;52.164;21.236;2022-12-18T05:00:22;23.53;;;12.17;;
44452;SDS011;30155;52.164;21.236;2022-12-18T05:05:14;22.85;;;13.55;;
44452;SDS011;30155;52.164;21.236;2022-12-18T05:10:05;17.52;;;10.70;;
44452;SDS011;30155;52.164;21.236;2022-12-18T05:14:57;19.65;;;12.25;;
44452;SDS011;30155;52.164;21.236;2022-12-18T05:19:48;16.93;;;10.40;;
44452;SDS011;30155;52.164;21.236;2022-12-18T05:24:39;14.80;;;9.38;;
44452;SDS011;30155;52.164;21.236;2022-12-18T05:29:30;17.70;;;10.00;;
44452;SDS011;30155;52.164;21.236;2022-12-18T05:34:21;22.13;;;13.10;;
44452;SDS011;30155;52.164;21.236;2022-12-18T05:39:12;18.60;;;10.80;;
44452;SDS011;30155;52.164;21.236;2022-12-18T05:44:04;16.52;;;9.40;;
44452;SDS011;30155;52.164;21.236;2022-12-18T05:48:58;21.00;;;12.05;;
44452;SDS011;30155;52.164;21.236;2022-12-18T05:53:51;17.85;;;11.38;;
44452;SDS011;30155;52.164;21.236;2022-12-18T05:58:42;20.60;;;12.45;;
44452;SDS011;30155;52.164;21.236;2022-12-18T06:03:34;22.42;;;11.80;;
44452;SDS011;30155;52.164;21.236;2022-12-18T06:08:26;17.85;;;10.35;;
44452;SDS011;30155;52.164;21.236;2022-12-18T06:13:17;16.45;;;10.00;;
44452;SDS011;30155;52.164;21.236;2022-12-18T06:18:08;17.87;;;9.48;;
44452;SDS011;30155;52.164;21.236;2022-12-18T06:22:59;19.02;;;11.15;;
44452;SDS011;30155;52.164;21.236;2022-12-18T06:27:50;17.98;;;11.10;;
44452;SDS011;30155;52.164;21.236;2022-12-18T06:32:41;22.67;;;11.35;;
44452;SDS011;30155;52.164;21.236;2022-12-18T06:37:33;26.37;;;13.70;;
44452;SDS011;30155;52.164;21.236;2022-12-18T06:42:24;22.40;;;11.20;;
44452;SDS011;30155;52.164;21.236;2022-12-18T06:47:16;21.02;;;11.48;;
44452;SDS011;30155;52.164;21.236;2022-12-18T06:52:07;19.35;;;10.45;;
44452;SDS011;30155;52.164;21.236;2022-12-18T06:56:58;21.55;;;12.47;;
44452;SDS011;30155;52.164;21.236;2022-12-18T07:01:49;15.75;;;9.45;;
44452;SDS011;30155;52.164;21.236;2022-12-18T07:06:40;22.55;;;12.68;;
44452;SDS011;30155;52.164;21.236;2022-12-18T07:11:34;21.30;;;12.60;;
44452;SDS011;30155;52.164;21.236;2022-12-18T07:16:25;23.92;;;14.03;;
44452;SDS011;30155;52.164;21.236;2022-12-18T07:21:19;29.65;;;16.05;;
44452;SDS011;30155;52.164;21.236;2022-12-18T07:26:11;25.82;;;14.45;;
44452;SDS011;30155;52.164;21.236;2022-12-18T07:31:04;48.90;;;27.67;;
44452;SDS011;30155;52.164;21.236;2022-12-18T07:35:59;31.02;;;17.37;;
44452;SDS011;30155;52.164;21.236;2022-12-18T07:40:53;43.00;;;21.00;;
44452;SDS011;30155;52.164;21.236;2022-12-18T07:45:45;34.67;;;16.52;;
44452;SDS011;30155;52.164;21.236;2022-12-18T07:50:36;30.45;;;17.50;;
44452;SDS011;30155;52.164;21.236;2022-12-18T07:55:28;35.75;;;20.15;;
44452;SDS011;30155;52.164;21.236;2022-12-18T08:00:21;31.07;;;16.62;;
44452;SDS011;30155;52.164;21.236;2022-12-18T08:05:12;35.58;;;20.17;;
44452;SDS011;30155;52.164;21.236;2022-12-18T08:10:04;35.33;;;19.25;;
44452;SDS011;30155;52.164;21.236;2022-12-18T08:14:57;50.75;;;24.02;;
44452;SDS011;30155;52.164;21.236;2022-12-18T08:19:48;34.73;;;19.12;;
44452;SDS011;30155;52.164;21.236;2022-12-18T08:24:39;42.33;;;19.90;;
44452;SDS011;30155;52.164;21.236;2022-12-18T08:29:30;38.63;;;19.57;;
44452;SDS011;30155;52.164;21.236;2022-12-18T08:34:22;34.08;;;18.85;;
44452;SDS011;30155;52.164;21.236;2022-12-18T08:39:13;38.98;;;19.40;;
44452;SDS011;30155;52.164;21.236;2022-12-18T08:44:04;26.65;;;15.70;;
44452;SDS011;30155;52.164;21.236;2022-12-18T08:49:14;43.28;;;24.00;;
44452;SDS011;30155;52.164;21.236;2022-12-18T08:54:06;42.03;;;20.60;;
44452;SDS011;30155;52.164;21.236;2022-12-18T08:58:59;41.68;;;22.87;;
44452;SDS011;30155;52.164;21.236;2022-12-18T09:03:51;43.02;;;22.37;;
44452;SDS011;30155;52.164;21.236;2022-12-18T09:08:42;41.75;;;21.77;;
44452;SDS011;30155;52.164;21.236;2022-12-18T09:13:35;44.45;;;24.32;;
44452;SDS011;30155;52.164;21.236;2022-12-18T09:18:26;53.08;;;28.62;;
44452;SDS011;30155;52.164;21.236;2022-12-18T09:23:17;45.63;;;21.12;;
44452;SDS011;30155;52.164;21.236;2022-12-18T09:28:13;48.13;;;22.77;;
44452;SDS011;30155;52.164;21.236;2022-12-18T09:33:06;43.63;;;24.23;;
44452;SDS011;30155;52.164;21.236;2022-12-18T09:37:57;49.73;;;23.62;;
44452;SDS011;30155;52.164;21.236;2022-12-18T09:42:51;44.70;;;22.75;;
44452;SDS011;30155;52.164;21.236;2022-12-18T09:47:48;43.98;;;22.98;;
44452;SDS011;30155;52.164;21.236;2022-12-18T09:52:44;43.00;;;23.50;;
44452;SDS011;30155;52.164;21.236;2022-12-18T09:57:40;44.63;;;23.92;;
44452;SDS011;30155;52.164;21.236;2022-12-18T10:02:35;52.90;;;25.80;;
44452;SDS011;30155;52.164;21.236;2022-12-18T10:07:29;39.50;;;21.23;;
44452;SDS011;30155;52.164;21.236;2022-12-18T10:12:44;44.05;;;23.95;;
44452;SDS011;30155;52.164;21.236;2022-12-18T10:17:45;43.48;;;22.55;;
44452;SDS011;30155;52.164;21.236;2022-12-18T10:28:12;47.17;;;24.65;;
44452;SDS011;30155;52.164;21.236;2022-12-18T10:33:05;36.20;;;21.17;;
44452;SDS011;30155;52.164;21.236;2022-12-18T10:38:06;42.58;;;22.35;;
44452;SDS011;30155;52.164;21.236;2022-12-18T10:43:11;37.30;;;20.10;;
44452;SDS011;30155;52.164;21.236;2022-12-18T10:48:05;33.35;;;18.60;;
44452;SDS011;30155;52.164;21.236;2022-12-18T10:53:13;44.27;;;22.27;;
44452;SDS011;30155;52.164;21.236;2022-12-18T11:03:36;37.20;;;21.15;;
44452;SDS011;30155;52.164;21.236;2022-12-18T11:08:34;35.20;;;21.70;;
44452;SDS011;30155;52.164;21.236;2022-12-18T11:13:27;43.30;;;23.38;;
44452;SDS011;30155;52.164;21.236;2022-12-18T11:18:26;41.28;;;25.10;;
44452;SDS011;30155;52.164;21.236;2022-12-18T11:23:23;39.50;;;23.18;;
44452;SDS011;30155;52.164;21.236;2022-12-18T11:33:48;41.13;;;21.60;;
44452;SDS011;30155;52.164;21.236;2022-12-18T11:38:40;48.77;;;26.53;;
44452;SDS011;30155;52.164;21.236;2022-12-18T11:43:40;37.67;;;20.62;;
44452;SDS011;30155;52.164;21.236;2022-12-18T11:48:49;45.50;;;24.80;;
44452;SDS011;30155;52.164;21.236;2022-12-18T11:53:43;47.15;;;23.32;;
44452;SDS011;30155;52.164;21.236;2022-12-18T11:58:45;46.88;;;26.27;;
44452;SDS011;30155;52.164;21.236;2022-12-18T12:03:45;42.58;;;25.75;;
44452;SDS011;30155;52.164;21.236;2022-12-18T12:19:17;39.78;;;21.35;;
44452;SDS011;30155;52.164;21.236;2022-12-18T12:34:25;48.80;;;25.43;;
44452;SDS011;30155;52.164;21.236;2022-12-18T12:39:34;51.35;;;26.70;;
44452;SDS011;30155;52.164;21.236;2022-12-18T12:44:30;49.85;;;27.37;;
44452;SDS011;30155;52.164;21.236;2022-12-18T12:49:36;50.70;;;26.12;;
44452;SDS011;30155;52.164;21.236;2022-12-18T12:54:29;51.88;;;27.48;;
44452;SDS011;30155;52.164;21.236;2022-12-18T13:04:45;47.08;;;23.75;;
44452;SDS011;30155;52.164;21.236;2022-12-18T13:10:10;49.15;;;25.08;;
44452;SDS011;30155;52.164;21.236;2022-12-18T13:15:13;48.10;;;24.65;;
44452;SDS011;30155;52.164;21.236;2022-12-18T13:20:20;39.03;;;20.90;;
44452;SDS011;30155;52.164;21.236;2022-12-18T13:45:43;51.20;;;23.35;;
44452;SDS011;30155;52.164;21.236;2022-12-18T13:50:36;44.85;;;23.80;;
44452;SDS011;30155;52.164;21.236;2022-12-18T13:55:29;40.48;;;20.75;;
44452;SDS011;30155;52.164;21.236;2022-12-18T14:00:25;44.20;;;22.30;;
44452;SDS011;30155;52.164;21.236;2022-12-18T14:05:23;49.42;;;24.20;;
44452;SDS011;30155;52.164;21.236;2022-12-18T14:10:23;44.18;;;22.75;;
44452;SDS011;30155;52.164;21.236;2022-12-18T14:15:20;45.73;;;21.15;;
44452;SDS011;30155;52.164;21.236;2022-12-18T14:20:14;46.85;;;22.22;;
44452;SDS011;30155;52.164;21.236;2022-12-18T14:25:21;42.75;;;22.20;;
44452;SDS011;30155;52.164;21.236;2022-12-18T14:35:22;46.28;;;24.45;;
44452;SDS011;30155;52.164;21.236;2022-12-18T14:40:13;41.08;;;20.12;;
44452;SDS011;30155;52.164;21.236;2022-12-18T14:50:27;44.95;;;23.12;;
44452;SDS011;30155;52.164;21.236;2022-12-18T14:55:21;48.45;;;23.85;;
44452;SDS011;30155;52.164;21.236;2022-12-18T15:00:16;48.63;;;23.57;;
44452;SDS011;30155;52.164;21.236;2022-12-18T15:25:58;42.05;;;22.20;;
44452;SDS011;30155;52.164;21.236;2022-12-18T15:30:57;52.50;;;25.30;;
44452;SDS011;30155;52.164;21.236;2022-12-18T15:36:09;39.90;;;21.75;;
44452;SDS011;30155;52.164;21.236;2022-12-18T15:41:03;51.90;;;24.72;;
44452;SDS011;30155;52.164;21.236;2022-12-18T15:45:54;50.33;;;25.80;;
44452;SDS011;30155;52.164;21.236;2022-12-18T15:50:46;49.85;;;23.70;;
44452;SDS011;30155;52.164;21.236;2022-12-18T15:55:38;35.70;;;18.37;;
44452;SDS011;30155;52.164;21.236;2022-12-18T16:00:48;42.78;;;20.95;;
44452;SDS011;30155;52.164;21.236;2022-12-18T16:05:39;41.33;;;21.37;;
44452;SDS011;30155;52.164;21.236;2022-12-18T16:10:30;35.30;;;20.23;;
44452;SDS011;30155;52.164;21.236;2022-12-18T16:15:22;35.70;;;18.37;;
44452;SDS011;30155;52.164;21.236;2022-12-18T16:20:17;37.60;;;19.50;;
44452;SDS011;30155;52.164;21.236;2022-12-18T16:25:16;30.48;;;16.40;;
44452;SDS011;30155;52.164;21.236;2022-12-18T16:30:14;30.97;;;15.70;;
44452;SDS011;30155;52.164;21.236;2022-12-18T16:35:14;42.70;;;22.27;;
44452;SDS011;30155;52.164;21.236;2022-12-18T16:45:01;46.13;;;23.87;;
44452;SDS011;30155;52.164;21.236;2022-12-18T16:49:52;45.03;;;24.23;;
44452;SDS011;30155;52.164;21.236;2022-12-18T16:54:43;46.73;;;22.65;;
44452;SDS011;30155;52.164;21.236;2022-12-18T16:59:35;46.65;;;22.65;;
44452;SDS011;30155;52.164;21.236;2022-12-18T17:04:26;40.43;;;21.95;;
44452;SDS011;30155;52.164;21.236;2022-12-18T17:09:17;37.10;;;20.23;;
44452;SDS011;30155;52.164;21.236;2022-12-18T17:14:18;46.33;;;22.62;;
44452;SDS011;30155;52.164;21.236;2022-12-18T17:19:12;43.65;;;21.20;;
44452;SDS011;30155;52.164;21.236;2022-12-18T17:24:06;38.28;;;19.65;;
44452;SDS011;30155;52.164;21.236;2022-12-18T17:28:57;34.83;;;17.00;;
44452;SDS011;30155;52.164;21.236;2022-12-18T17:33:49;36.95;;;21.12;;
44452;SDS011;30155;52.164;21.236;2022-12-18T17:38:42;37.38;;;18.52;;
44452;SDS011;30155;52.164;21.236;2022-12-18T17:43:44;45.08;;;22.65;;
44452;SDS011;30155;52.164;21.236;2022-12-18T17:48:43;42.08;;;23.10;;
44452;SDS011;30155;52.164;21.236;2022-12-18T17:53:35;40.25;;;21.52;;
44452;SDS011;30155;52.164;21.236;2022-12-18T17:58:31;39.10;;;22.05;;
44452;SDS011;30155;52.164;21.236;2022-12-18T18:03:27;40.45;;;23.27;;
44452;SDS011;30155;52.164;21.236;2022-12-18T18:08:19;36.83;;;20.43;;
44452;SDS011;30155;52.164;21.236;2022-12-18T18:13:17;40.23;;;19.67;;
44452;SDS011;30155;52.164;21.236;2022-12-18T18:18:29;45.43;;;23.60;;
44452;SDS011;30155;52.164;21.236;2022-12-18T18:23:20;51.68;;;25.12;;
44452;SDS011;30155;52.164;21.236;2022-12-18T18:28:12;49.27;;;24.27;;
44452;SDS011;30155;52.164;21.236;2022-12-18T18:33:03;42.90;;;21.40;;
44452;SDS011;30155;52.164;21.236;2022-12-18T18:37:55;43.73;;;23.52;;
44452;SDS011;30155;52.164;21.236;2022-12-18T18:42:46;41.53;;;21.73;;
44452;SDS011;30155;52.164;21.236;2022-12-18T18:47:37;36.75;;;20.52;;
44452;SDS011;30155;52.164;21.236;2022-12-18T18:52:29;44.85;;;23.67;;
44452;SDS011;30155;52.164;21.236;2022-12-18T18:57:20;48.30;;;25.57;;
44452;SDS011;30155;52.164;21.236;2022-12-18T19:02:12;46.10;;;24.10;;
44452;SDS011;30155;52.164;21.236;2022-12-18T19:07:04;49.50;;;22.67;;
44452;SDS011;30155;52.164;21.236;2022-12-18T19:11:56;39.78;;;21.48;;
44452;SDS011;30155;52.164;21.236;2022-12-18T19:17:07;39.88;;;19.60;;
44452;SDS011;30155;52.164;21.236;2022-12-18T19:22:00;37.42;;;19.25;;
44452;SDS011;30155;52.164;21.236;2022-12-18T19:26:52;37.17;;;19.82;;
44452;SDS011;30155;52.164;21.236;2022-12-18T19:31:43;30.90;;;18.27;;
44452;SDS011;30155;52.164;21.236;2022-12-18T19:36:35;27.98;;;14.03;;
44452;SDS011;30155;52.164;21.236;2022-12-18T19:41:29;34.43;;;18.23;;
44452;SDS011;30155;52.164;21.236;2022-12-18T19:46:22;34.53;;;18.80;;
44452;SDS011;30155;52.164;21.236;2022-12-18T19:51:15;39.55;;;21.07;;
44452;SDS011;30155;52.164;21.236;2022-12-18T19:56:17;33.13;;;17.87;;
44452;SDS011;30155;52.164;21.236;2022-12-18T20:01:08;35.50;;;20.70;;
44452;SDS011;30155;52.164;21.236;2022-12-18T20:06:07;37.78;;;20.48;;
44452;SDS011;30155;52.164;21.236;2022-12-18T20:11:01;44.18;;;20.12;;
44452;SDS011;30155;52.164;21.236;2022-12-18T20:15:52;36.05;;;19.60;;
44452;SDS011;30155;52.164;21.236;2022-12-18T20:20:43;40.92;;;20.15;;
44452;SDS011;30155;52.164;21.236;2022-12-18T20:25:36;27.05;;;15.23;;
44452;SDS011;30155;52.164;21.236;2022-12-18T20:30:28;35.10;;;17.60;;
44452;SDS011;30155;52.164;21.236;2022-12-18T20:35:19;28.35;;;14.45;;
44452;SDS011;30155;52.164;21.236;2022-12-18T20:40:10;32.63;;;16.50;;
44452;SDS011;30155;52.164;21.236;2022-12-18T20:45:04;29.80;;;15.18;;
44452;SDS011;30155;52.164;21.236;2022-12-18T20:49:56;28.80;;;16.48;;
44452;SDS011;30155;52.164;21.236;2022-12-18T20:54:49;31.93;;;15.30;;
44452;SDS011;30155;52.164;21.236;2022-12-18T20:59:41;28.75;;;14.55;;
44452;SDS011;30155;52.164;21.236;2022-12-18T21:04:32;28.20;;;14.93;;
44452;SDS011;30155;52.164;21.236;2022-12-18T21:09:23;27.35;;;13.50;;
44452;SDS011;30155;52.164;21.236;2022-12-18T21:14:19;28.05;;;14.98;;
44452;SDS011;30155;52.164;21.236;2022-12-18T21:19:21;30.15;;;15.25;;
44452;SDS011;30155;52.164;21.236;2022-12-18T21:24:14;18.82;;;10.82;;
44452;SDS011;30155;52.164;21.236;2022-12-18T21:29:06;21.95;;;12.53;;
44452;SDS011;30155;52.164;21.236;2022-12-18T21:34:00;27.25;;;13.98;;
44452;SDS011;30155;52.164;21.236;2022-12-18T21:38:52;27.55;;;13.13;;
44452;SDS011;30155;52.164;21.236;2022-12-18T21:43:45;29.20;;;13.25;;
44452;SDS011;30155;52.164;21.236;2022-12-18T21:48:54;27.10;;;13.30;;
44452;SDS011;30155;52.164;21.236;2022-12-18T21:53:45;29.50;;;15.25;;
44452;SDS011;30155;52.164;21.236;2022-12-18T21:58:37;29.65;;;15.05;;
44452;SDS011;30155;52.164;21.236;2022-12-18T22:03:28;32.48;;;14.93;;
44452;SDS011;30155;52.164;21.236;2022-12-18T22:08:20;25.12;;;12.78;;
44452;SDS011;30155;52.164;21.236;2022-12-18T22:13:11;28.85;;;15.10;;
44452;SDS011;30155;52.164;21.236;2022-12-18T22:18:03;31.57;;;14.45;;
44452;SDS011;30155;52.164;21.236;2022-12-18T22:22:54;32.63;;;14.18;;
44452;SDS011;30155;52.164;21.236;2022-12-18T22:27:46;29.15;;;14.98;;
44452;SDS011;30155;52.164;21.236;2022-12-18T22:32:39;28.35;;;13.98;;
44452;SDS011;30155;52.164;21.236;2022-12-18T22:37:30;24.25;;;12.85;;
44452;SDS011;30155;52.164;21.236;2022-12-18T22:42:22;27.77;;;13.43;;
44452;SDS011;30155;52.164;21.236;2022-12-18T22:47:14;27.52;;;13.13;;
44452;SDS011;30155;52.164;21.236;2022-12-18T22:52:05;26.40;;;13.68;;
44452;SDS011;30155;52.164;21.236;2022-12-18T22:57:00;26.60;;;12.50;;
44452;SDS011;30155;52.164;21.236;2022-12-18T23:01:51;24.27;;;12.82;;
44452;SDS011;30155;52.164;21.236;2022-12-18T23:06:43;19.73;;;10.68;;
44452;SDS011;30155;52.164;21.236;2022-12-18T23:11:35;21.45;;;11.30;;
44452;SDS011;30155;52.164;21.236;2022-12-18T23:16:26;18.45;;;7.55;;
44452;SDS011;30155;52.164;21.236;2022-12-18T23:21:18;20.15;;;9.70;;
44452;SDS011;30155;52.164;21.236;2022-12-18T23:26:12;17.45;;;8.40;;
44452;SDS011;30155;52.164;21.236;2022-12-18T23:31:24;18.73;;;10.15;;
44452;SDS011;30155;52.164;21.236;2022-12-18T23:36:15;19.00;;;8.95;;
44452;SDS011;30155;52.164;21.236;2022-12-18T23:41:12;16.15;;;8.45;;
44452;SDS011;30155;52.164;21.236;2022-12-18T23:46:17;17.87;;;10.08;;
44452;SDS011;30155;52.164;21.236;2022-12-18T23:51:08;16.32;;;9.30;;
44452;SDS011;30155;52.164;21.236;2022-12-18T23:56:02;19.85;;;10.43;;
